This is the latest recevied weather packets stored in our database for station/object JH0KSP-13. If no packets are shown the sender has not sent any weather packets the latest 10 day(s).
| Time | Temp. | Humidity | Pressure | Rain* | Wind** | Luminosity | Snow |
|---|---|---|---|---|---|---|---|
| 1778147216 | 21.11° C | 59% | 1011.2 hPa | 0 mm | - | - | - |
| 1778146809 | 22.22° C | 59% | 1011.1 hPa | 0 mm | - | - | - |
| 1778146016 | 22.22° C | 57% | 1011.1 hPa | 0 mm | - | - | - |
| 1778145608 | 22.22° C | 56% | 1010.8 hPa | 0 mm | - | - | - |
| 1778145009 | 22.78° C | 53% | 1010.7 hPa | 0 mm | - | - | - |
| 1778144815 | 22.78° C | 52% | 1010.8 hPa | 0 mm | - | - | - |
| 1778143617 | 23.89° C | 47% | 1010.6 hPa | 0 mm | - | - | - |
| 1778142416 | 25° C | 43% | 1010.4 hPa | 0 mm | - | - | - |
| 1778141409 | 26.11° C | 42% | 1010.2 hPa | 0 mm | - | - | - |
| 1778141216 | 26.11° C | 41% | 1010.2 hPa | 0 mm | - | - | - |
| 1778140808 | 26.11° C | 42% | 1010.2 hPa | 0 mm | - | - | - |
| 1778140208 | 26.11° C | 40% | 1010.2 hPa | 0 mm | - | - | - |
| 1778140015 | 27.22° C | 40% | 1010.3 hPa | 0 mm | - | - | - |
| 1778138816 | 27.22° C | 40% | 1010.3 hPa | 0 mm | - | - | - |
| 1778137808 | 27.22° C | 40% | 1010.6 hPa | 0 mm | - | - | - |
| 1778137617 | 27.22° C | 40% | 1010.5 hPa | 0 mm | - | - | - |
| 1778136415 | 27.22° C | 40% | 1010.5 hPa | 0 mm | - | - | - |
| 1778136008 | 27.22° C | 39% | 1010.4 hPa | 0 mm | - | - | - |
| 1778135216 | 27.22° C | 40% | 1010.5 hPa | 0 mm | - | - | - |
| 1778134809 | 27.22° C | 41% | 1010.6 hPa | 0 mm | - | - | - |
| 1778134017 | 27.22° C | 43% | 1010.7 hPa | 0 mm | - | - | - |
| 1778132816 | 26.11° C | 44% | 1011.2 hPa | 0 mm | - | - | - |
| 1778131617 | 26.11° C | 43% | 1011.3 hPa | 0 mm | - | - | - |
| 1778130609 | 26.11° C | 44% | 1011.5 hPa | 0 mm | - | - | - |
| 1778130415 | 26.11° C | 44% | 1011.6 hPa | 0 mm | - | - | - |
* Rain latest hour (hover to see other rain measurements)
** Current wind speed in m/s (hover to see current wind gust speed)